Time;durP1;ratioP1;P1;durP2;ratioP2;P2;SDS_P1;SDS_P2;PMS_P1;PMS_P2;Temp;Humidity;BMP_temperature;BMP_pressure;BME280_temperature;BME280_humidity;BME280_pressure;Samples;Min_cycle;Max_cycle;Signal;HPM_P1;HPM_P2
2023/08/04 00:01:52;;;;;;;4.53;1.70;;;18.90;67.80;;;;;;6157285;23;20452;-90
2023/08/04 00:04:20;;;;;;;9.05;2.33;;;19.00;67.70;;;;;;6157238;23;20017;-89
2023/08/04 00:06:47;;;;;;;4.87;1.40;;;19.00;67.80;;;;;;6132812;23;20033;-90
2023/08/04 00:09:16;;;;;;;5.45;1.70;;;18.90;68.10;;;;;;6157132;23;20452;-90
2023/08/04 00:11:43;;;;;;;4.68;1.55;;;18.90;68.10;;;;;;6132656;23;20104;-89
2023/08/04 00:14:11;;;;;;;5.22;1.25;;;18.90;68.00;;;;;;6157213;23;20024;-89
2023/08/04 00:16:38;;;;;;;5.03;1.10;;;18.80;67.70;;;;;;6156738;23;20463;-89
2023/08/04 00:19:05;;;;;;;4.23;0.80;;;18.80;67.80;;;;;;6156896;23;20021;-89
2023/08/04 00:21:32;;;;;;;6.13;0.95;;;18.80;68.20;;;;;;6157373;23;20145;-89
2023/08/04 00:23:59;;;;;;;4.72;0.90;;;18.80;68.00;;;;;;6132117;23;20022;-89
2023/08/04 00:26:26;;;;;;;3.10;0.80;;;18.80;68.20;;;;;;6156521;23;20028;-90
2023/08/04 00:28:53;;;;;;;5.97;1.02;;;18.70;68.40;;;;;;6132601;23;20021;-90
2023/08/04 00:31:21;;;;;;;3.70;1.10;;;18.70;68.40;;;;;;6156407;23;20025;-90
2023/08/04 00:33:48;;;;;;;5.68;0.93;;;18.70;68.30;;;;;;6131788;23;20022;-89
2023/08/04 00:36:15;;;;;;;6.07;1.15;;;18.70;68.30;;;;;;6132062;23;20022;-90
2023/08/04 00:38:42;;;;;;;5.63;1.05;;;18.70;68.10;;;;;;6156770;23;20031;-89
2023/08/04 00:41:09;;;;;;;4.68;1.25;;;18.70;68.10;;;;;;6156423;23;20017;-89
2023/08/04 00:43:36;;;;;;;4.10;1.07;;;18.70;68.00;;;;;;6156287;23;20024;-90
2023/08/04 00:46:04;;;;;;;6.38;1.05;;;18.70;67.80;;;;;;6156068;23;20017;-90
2023/08/04 00:48:32;;;;;;;5.65;1.25;;;18.70;67.90;;;;;;6156433;23;20021;-89
2023/08/04 00:50:59;;;;;;;4.93;1.17;;;18.70;67.80;;;;;;6137721;23;20064;-89
2023/08/04 00:53:27;;;;;;;6.35;1.20;;;18.70;67.90;;;;;;6131521;23;20108;-90
2023/08/04 00:55:54;;;;;;;6.03;1.10;;;18.80;67.80;;;;;;6131581;23;20508;-89
2023/08/04 00:58:22;;;;;;;9.77;1.63;;;18.80;67.10;;;;;;6131243;23;20021;-89
2023/08/04 01:00:49;;;;;;;9.57;1.48;;;18.80;66.70;;;;;;6132345;23;20108;-89
2023/08/04 01:03:16;;;;;;;7.80;1.35;;;18.90;67.10;;;;;;6107484;23;20029;-89
2023/08/04 01:06:06;;;;;;;6.93;1.60;;;18.90;66.90;;;;;;6132068;23;20017;-90
2023/08/04 01:08:35;;;;;;;6.73;0.90;;;18.80;67.30;;;;;;6107210;23;20049;-90
2023/08/04 01:11:13;;;;;;;4.25;1.02;;;18.80;67.00;;;;;;6107588;23;20026;-90
2023/08/04 01:13:42;;;;;;;3.72;0.85;;;18.80;67.30;;;;;;6131976;23;20068;-89
2023/08/04 01:16:10;;;;;;;5.88;0.73;;;18.70;67.40;;;;;;6108217;23;20408;-89
2023/08/04 01:18:38;;;;;;;3.25;0.70;;;18.70;67.30;;;;;;6132378;23;20383;-89
2023/08/04 01:21:05;;;;;;;5.53;0.70;;;18.70;67.60;;;;;;6107759;23;20055;-89
2023/08/04 01:23:33;;;;;;;3.05;0.90;;;18.70;67.40;;;;;;6132125;23;20070;-89
2023/08/04 01:26:02;;;;;;;6.97;0.80;;;18.70;67.30;;;;;;6131856;23;20467;-89
2023/08/04 01:28:32;;;;;;;2.42;0.57;;;18.70;67.10;;;;;;6131992;23;20024;-88
2023/08/04 01:31:00;;;;;;;4.80;0.80;;;18.70;67.30;;;;;;6131014;23;20024;-89
2023/08/04 01:33:29;;;;;;;3.93;0.80;;;18.80;67.30;;;;;;6131200;23;20018;-89
2023/08/04 01:35:56;;;;;;;4.63;0.85;;;18.70;67.40;;;;;;6106893;23;20025;-89
2023/08/04 01:38:23;;;;;;;5.03;1.20;;;18.70;67.70;;;;;;6101991;23;20026;-89
2023/08/04 01:40:50;;;;;;;4.72;0.90;;;18.70;67.90;;;;;;6099319;23;20014;-89
2023/08/04 01:43:20;;;;;;;4.90;0.90;;;18.60;68.20;;;;;;6133185;23;20017;-89
2023/08/04 01:45:47;;;;;;;5.67;0.97;;;18.60;68.20;;;;;;6132955;23;20499;-89
2023/08/04 01:48:14;;;;;;;3.97;0.85;;;18.60;68.60;;;;;;6133142;23;20017;-89
2023/08/04 01:50:42;;;;;;;5.00;1.00;;;18.60;68.90;;;;;;6108966;23;20031;-89
2023/08/04 01:53:09;;;;;;;5.05;1.27;;;18.50;69.20;;;;;;6133219;23;20022;-89
2023/08/04 01:55:38;;;;;;;3.38;0.88;;;18.50;69.50;;;;;;6109283;23;20052;-89
2023/08/04 01:58:05;;;;;;;5.40;0.97;;;18.40;69.70;;;;;;6132764;23;20021;-89
2023/08/04 02:00:32;;;;;;;5.32;1.10;;;18.30;70.00;;;;;;6108740;23;20017;-89
2023/08/04 02:03:00;;;;;;;5.97;1.00;;;18.30;70.40;;;;;;6128325;23;20108;-88
2023/08/04 02:05:27;;;;;;;5.57;0.90;;;18.30;70.40;;;;;;6108917;23;20444;-89
2023/08/04 02:07:57;;;;;;;7.15;1.10;;;18.30;70.40;;;;;;6108956;23;20077;-88
2023/08/04 02:10:28;;;;;;;6.67;1.00;;;18.30;70.60;;;;;;6132824;23;20026;-89
2023/08/04 02:12:55;;;;;;;4.70;0.90;;;18.30;71.10;;;;;;6133618;23;20021;-89
2023/08/04 02:15:22;;;;;;;3.45;0.80;;;18.20;70.80;;;;;;6133842;23;20108;-89
2023/08/04 02:17:49;;;;;;;4.07;0.85;;;18.20;71.20;;;;;;6104974;23;20025;-89
2023/08/04 02:20:16;;;;;;;6.30;1.00;;;18.20;71.30;;;;;;6134258;23;20021;-89
2023/08/04 02:22:45;;;;;;;4.97;1.10;;;18.20;71.40;;;;;;6133470;23;20068;-89
2023/08/04 02:25:12;;;;;;;5.00;0.88;;;18.20;71.30;;;;;;6104354;23;20018;-89
2023/08/04 02:27:39;;;;;;;4.88;1.05;;;18.20;71.40;;;;;;6122051;23;20021;-89
2023/08/04 02:30:07;;;;;;;5.30;0.85;;;18.20;71.40;;;;;;6107803;23;20026;-89
2023/08/04 02:32:36;;;;;;;6.75;1.40;;;18.20;71.40;;;;;;6133406;23;20022;-89
2023/08/04 02:35:04;;;;;;;3.97;0.97;;;18.20;71.50;;;;;;6133468;23;20021;-89
2023/08/04 02:37:31;;;;;;;6.60;0.90;;;18.10;71.60;;;;;;6132762;23;20032;-89
2023/08/04 02:39:59;;;;;;;5.95;0.80;;;18.10;71.60;;;;;;6133183;23;20025;-89
2023/08/04 02:42:26;;;;;;;4.22;0.80;;;18.10;71.70;;;;;;6133252;23;20018;-89
2023/08/04 02:44:56;;;;;;;6.88;1.10;;;18.10;71.90;;;;;;6133021;23;20017;-89
2023/08/04 02:47:23;;;;;;;5.70;0.80;;;18.10;71.80;;;;;;6132752;23;20088;-90
2023/08/04 02:49:50;;;;;;;4.85;0.80;;;18.10;71.80;;;;;;6132568;23;20352;-90
2023/08/04 02:52:17;;;;;;;5.25;0.82;;;18.10;71.80;;;;;;6132272;23;20087;-90
2023/08/04 02:54:45;;;;;;;4.82;0.93;;;18.10;71.80;;;;;;6132715;23;20017;-89
2023/08/04 02:57:12;;;;;;;5.50;0.93;;;18.00;71.70;;;;;;6132762;23;20097;-90
2023/08/04 02:59:39;;;;;;;6.30;1.20;;;18.10;71.70;;;;;;6132970;23;20088;-89
2023/08/04 03:02:08;;;;;;;3.00;0.70;;;18.10;71.90;;;;;;6133282;23;20025;-88
2023/08/04 03:04:35;;;;;;;4.88;0.82;;;18.00;71.90;;;;;;6132464;23;20013;-89
2023/08/04 03:07:03;;;;;;;5.47;0.88;;;18.00;71.90;;;;;;6132644;23;20017;-89
2023/08/04 03:09:30;;;;;;;5.15;1.20;;;18.00;72.00;;;;;;6108550;23;20021;-89
2023/08/04 03:11:57;;;;;;;4.93;1.10;;;18.10;71.90;;;;;;6132788;23;20364;-93
2023/08/04 03:14:24;;;;;;;5.65;1.00;;;18.00;71.70;;;;;;6108043;23;20022;-89
2023/08/04 03:16:51;;;;;;;6.93;0.98;;;18.00;71.90;;;;;;6132875;23;20468;-90
2023/08/04 03:19:18;;;;;;;5.00;0.80;;;18.10;72.00;;;;;;6132625;23;20112;-89
2023/08/04 03:21:46;;;;;;;8.93;1.58;;;18.00;72.30;;;;;;6132993;23;20017;-89
2023/08/04 03:24:13;;;;;;;3.10;0.87;;;18.10;72.20;;;;;;6108603;23;20072;-90
2023/08/04 03:26:40;;;;;;;4.95;0.90;;;18.10;71.80;;;;;;6108518;23;20028;-89
2023/08/04 03:29:08;;;;;;;5.32;1.08;;;18.10;71.70;;;;;;6132896;23;20024;-89
2023/08/04 03:31:36;;;;;;;6.15;1.27;;;18.10;71.60;;;;;;6108784;23;20022;-89
2023/08/04 03:34:03;;;;;;;6.57;0.95;;;18.10;71.70;;;;;;6132586;23;20535;-89
2023/08/04 03:36:31;;;;;;;4.73;1.10;;;18.20;71.70;;;;;;6132280;23;20100;-89
2023/08/04 03:38:58;;;;;;;4.10;0.80;;;18.20;71.20;;;;;;6132443;23;20028;-89
2023/08/04 03:41:25;;;;;;;4.13;0.80;;;18.10;71.40;;;;;;6132635;23;20023;-89
2023/08/04 03:43:52;;;;;;;4.53;0.70;;;18.10;71.40;;;;;;6132899;23;20017;-89
2023/08/04 03:46:19;;;;;;;3.15;0.80;;;18.10;71.10;;;;;;6132880;23;20097;-89
2023/08/04 03:48:46;;;;;;;3.70;0.83;;;18.10;71.20;;;;;;6132770;23;20038;-89
2023/08/04 03:51:15;;;;;;;4.22;0.80;;;18.20;71.00;;;;;;6132398;23;20337;-89
2023/08/04 03:53:42;;;;;;;5.72;0.93;;;18.20;71.00;;;;;;6132147;23;20028;-89
2023/08/04 03:56:09;;;;;;;4.45;0.80;;;18.20;71.30;;;;;;6132466;23;20021;-89
2023/08/04 03:58:36;;;;;;;6.20;1.23;;;18.20;71.30;;;;;;6131831;23;20017;-88
2023/08/04 04:01:03;;;;;;;8.60;1.40;;;18.20;71.70;;;;;;6107726;23;20417;-89
2023/08/04 04:03:30;;;;;;;3.30;0.70;;;18.20;71.30;;;;;;6107791;23;20048;-88
2023/08/04 04:05:58;;;;;;;5.72;1.13;;;18.20;71.40;;;;;;6131698;23;20024;-89
2023/08/04 04:08:25;;;;;;;5.20;1.02;;;18.20;71.30;;;;;;6107757;23;20021;-89
2023/08/04 04:10:52;;;;;;;4.88;1.00;;;18.20;71.60;;;;;;6131983;23;20048;-89
2023/08/04 04:13:19;;;;;;;6.07;1.00;;;18.20;71.70;;;;;;6132320;23;20049;-89
2023/08/04 04:15:46;;;;;;;4.65;1.00;;;18.20;71.90;;;;;;6108359;23;20088;-89
2023/08/04 04:18:13;;;;;;;4.38;1.00;;;18.10;72.00;;;;;;6120136;23;20026;-89
2023/08/04 04:20:40;;;;;;;5.78;0.90;;;18.10;72.20;;;;;;6132617;23;20451;-89
2023/08/04 04:23:09;;;;;;;6.00;1.08;;;18.10;72.40;;;;;;6131086;23;20507;-89
2023/08/04 04:25:37;;;;;;;4.13;0.90;;;18.10;72.50;;;;;;6132490;23;20021;-89
2023/08/04 04:28:04;;;;;;;5.78;1.25;;;18.10;72.50;;;;;;6129867;23;20360;-89
2023/08/04 04:30:32;;;;;;;3.35;0.80;;;18.10;72.70;;;;;;6108127;23;20365;-89
2023/08/04 04:32:59;;;;;;;4.70;0.80;;;18.20;72.70;;;;;;6108475;23;20041;-89
2023/08/04 04:35:26;;;;;;;4.25;1.02;;;18.20;72.50;;;;;;6132491;23;20026;-89
2023/08/04 04:37:53;;;;;;;4.83;0.90;;;18.20;72.90;;;;;;6108136;23;20025;-89
2023/08/04 04:40:20;;;;;;;6.63;1.05;;;18.20;72.80;;;;;;6133275;23;20024;-89
2023/08/04 04:42:48;;;;;;;4.75;0.85;;;18.20;72.80;;;;;;6131580;23;20085;-88
2023/08/04 04:45:15;;;;;;;5.57;1.27;;;18.20;72.30;;;;;;6132456;23;20026;-89
2023/08/04 04:47:42;;;;;;;7.00;1.00;;;18.30;72.50;;;;;;6132407;23;20017;-89
2023/08/04 04:50:09;;;;;;;7.17;1.10;;;18.20;72.40;;;;;;6107450;23;20122;-89
2023/08/04 04:52:37;;;;;;;3.65;0.95;;;18.20;72.50;;;;;;6132376;23;20017;-89
2023/08/04 04:55:05;;;;;;;6.28;0.98;;;18.20;72.60;;;;;;6108301;23;20013;-89
2023/08/04 04:57:37;;;;;;;3.97;0.90;;;18.20;72.90;;;;;;6132541;23;20021;-89
2023/08/04 05:00:05;;;;;;;7.43;1.05;;;18.20;72.90;;;;;;6108187;23;20021;-89
2023/08/04 05:02:32;;;;;;;3.60;0.83;;;18.30;73.00;;;;;;6132079;23;20081;-89
2023/08/04 05:04:59;;;;;;;5.28;1.00;;;18.30;72.80;;;;;;6107963;23;20128;-89
2023/08/04 05:07:27;;;;;;;5.68;1.02;;;18.30;73.30;;;;;;6107942;23;20032;-89
2023/08/04 05:09:55;;;;;;;8.52;1.10;;;18.30;72.90;;;;;;6132163;23;20017;-89
2023/08/04 05:12:22;;;;;;;4.38;0.75;;;18.30;73.10;;;;;;6108165;23;20411;-89
2023/08/04 05:14:49;;;;;;;3.77;1.07;;;18.30;72.90;;;;;;6131636;23;20040;-89
2023/08/04 05:17:16;;;;;;;4.25;0.77;;;18.30;72.60;;;;;;6132227;23;20017;-89
2023/08/04 05:19:44;;;;;;;4.35;1.08;;;18.30;73.20;;;;;;6132270;23;20072;-89
2023/08/04 05:22:12;;;;;;;5.80;0.90;;;18.40;73.00;;;;;;6132066;23;20045;-89
2023/08/04 05:24:39;;;;;;;6.05;0.90;;;18.40;72.70;;;;;;6107752;23;20068;-89
2023/08/04 05:27:06;;;;;;;3.10;0.80;;;18.40;73.00;;;;;;6132202;23;20368;-89
2023/08/04 05:29:36;;;;;;;5.45;1.10;;;18.40;72.80;;;;;;6132266;23;20022;-89
2023/08/04 05:32:03;;;;;;;4.60;0.90;;;18.40;72.90;;;;;;6107680;23;20108;-89
2023/08/04 05:34:31;;;;;;;6.95;0.90;;;18.40;73.00;;;;;;6132448;23;20072;-89
2023/08/04 05:36:58;;;;;;;4.13;1.10;;;18.40;73.10;;;;;;6132197;23;20025;-89
2023/08/04 05:39:26;;;;;;;4.73;1.10;;;18.40;73.20;;;;;;6132178;23;20392;-89
2023/08/04 05:41:53;;;;;;;5.78;1.30;;;18.40;73.20;;;;;;6107942;23;20344;-88
2023/08/04 05:44:22;;;;;;;4.95;0.90;;;18.40;73.50;;;;;;6131947;23;20013;-88
2023/08/04 05:46:49;;;;;;;6.82;1.58;;;18.50;73.90;;;;;;6131965;23;20100;-88
2023/08/04 05:49:18;;;;;;;5.10;1.00;;;18.50;73.80;;;;;;6106075;23;20017;-89
2023/08/04 05:51:46;;;;;;;5.40;1.30;;;18.40;74.00;;;;;;6127212;23;20448;-89
2023/08/04 05:54:14;;;;;;;4.82;1.08;;;18.40;73.70;;;;;;6132092;23;20021;-89
2023/08/04 05:56:41;;;;;;;5.55;1.70;;;18.40;73.80;;;;;;6132039;23;20068;-90
2023/08/04 05:59:09;;;;;;;5.40;1.02;;;18.40;74.20;;;;;;6132405;23;20021;-90
2023/08/04 06:01:36;;;;;;;6.18;1.20;;;18.40;74.40;;;;;;6131780;23;20025;-87
2023/08/04 06:04:03;;;;;;;6.83;1.30;;;18.50;74.40;;;;;;6107092;23;20037;-87
2023/08/04 06:06:30;;;;;;;4.78;1.45;;;18.50;74.40;;;;;;6107520;23;20041;-89
2023/08/04 06:08:58;;;;;;;5.82;1.63;;;18.60;73.80;;;;;;6131542;23;20025;-88
2023/08/04 06:11:25;;;;;;;6.05;1.25;;;18.60;73.70;;;;;;6107698;23;20048;-87
2023/08/04 06:13:52;;;;;;;5.15;1.20;;;18.60;73.60;;;;;;6131657;23;20045;-86
2023/08/04 06:16:21;;;;;;;6.93;1.10;;;18.60;74.00;;;;;;6131179;23;20047;-87
2023/08/04 06:18:49;;;;;;;4.90;1.20;;;18.60;74.00;;;;;;6131845;23;20025;-87
2023/08/04 06:21:16;;;;;;;5.88;1.35;;;18.60;74.10;;;;;;6131309;23;20377;-86
2023/08/04 06:23:45;;;;;;;6.60;1.25;;;18.80;74.10;;;;;;6106897;23;20127;-86
2023/08/04 06:26:13;;;;;;;6.40;1.40;;;18.80;73.20;;;;;;6131479;23;20329;-86
2023/08/04 06:45:12;;;;;;;5.03;1.05;;;19.10;72.70;;;;;;6140235;23;20023;-86
2023/08/04 06:47:39;;;;;;;3.43;0.97;;;19.10;72.50;;;;;;6137337;23;20021;-87
2023/08/04 06:50:07;;;;;;;4.13;1.00;;;19.00;73.10;;;;;;6137482;23;20076;-86
2023/08/04 06:52:34;;;;;;;6.20;1.10;;;19.10;73.30;;;;;;6137607;23;20531;-88
2023/08/04 06:55:01;;;;;;;7.53;1.23;;;19.10;72.50;;;;;;6138123;23;20028;-88
2023/08/04 06:57:32;;;;;;;6.05;1.48;;;19.00;72.70;;;;;;6139115;23;20021;-88
2023/08/04 06:59:59;;;;;;;4.23;1.13;;;19.10;72.90;;;;;;6137830;23;20028;-87
2023/08/04 07:02:26;;;;;;;5.97;0.90;;;19.00;72.40;;;;;;6138052;23;20075;-87
2023/08/04 07:04:53;;;;;;;4.63;1.02;;;19.00;72.40;;;;;;6137822;23;20347;-88
2023/08/04 07:07:20;;;;;;;5.78;1.33;;;18.80;72.80;;;;;;6137850;23;20017;-87
2023/08/04 07:09:47;;;;;;;5.20;1.30;;;18.80;72.90;;;;;;6137653;23;20448;-88
2023/08/04 07:12:14;;;;;;;4.77;1.10;;;18.80;73.10;;;;;;6137820;23;20069;-87
2023/08/04 07:14:42;;;;;;;4.63;1.05;;;18.80;73.10;;;;;;6137783;23;20444;-87
2023/08/04 07:17:09;;;;;;;5.05;1.08;;;18.80;72.90;;;;;;6137522;23;20021;-89
2023/08/04 07:19:39;;;;;;;4.45;1.10;;;18.80;72.60;;;;;;6138012;23;20518;-87
2023/08/04 07:22:09;;;;;;;6.38;1.10;;;18.80;72.50;;;;;;6161358;23;20017;-88
2023/08/04 07:24:36;;;;;;;4.40;0.77;;;18.80;72.60;;;;;;6161449;23;20017;-87
2023/08/04 07:27:04;;;;;;;4.47;1.00;;;18.90;72.50;;;;;;6137092;23;20040;-87
2023/08/04 07:29:33;;;;;;;4.80;1.00;;;18.90;71.90;;;;;;6137015;23;20045;-87
2023/08/04 07:32:01;;;;;;;6.40;1.13;;;19.00;72.50;;;;;;6161658;23;20023;-87
2023/08/04 07:34:28;;;;;;;7.40;1.15;;;19.10;71.50;;;;;;6136893;23;20032;-87
2023/08/04 07:36:55;;;;;;;7.70;1.50;;;19.10;71.30;;;;;;6136861;23;20072;-86
2023/08/04 07:39:22;;;;;;;5.63;2.42;;;19.10;71.40;;;;;;6136703;23;20041;-87
2023/08/04 07:41:49;;;;;;;6.57;2.20;;;19.20;71.30;;;;;;6137207;23;20024;-87
2023/08/04 07:44:16;;;;;;;6.10;1.83;;;19.20;71.80;;;;;;6137065;23;20103;-88
2023/08/04 07:46:43;;;;;;;5.57;2.10;;;19.20;70.90;;;;;;6136461;23;20024;-87
2023/08/04 07:49:10;;;;;;;8.67;1.83;;;19.20;71.40;;;;;;6136865;23;20017;-87
2023/08/04 07:51:39;;;;;;;6.43;2.20;;;19.30;71.50;;;;;;6137021;23;20072;-87
2023/08/04 07:54:06;;;;;;;5.38;2.50;;;19.30;71.00;;;;;;6136759;23;20076;-87
2023/08/04 07:56:34;;;;;;;5.35;2.20;;;19.30;71.10;;;;;;6136580;23;20079;-87
2023/08/04 07:59:01;;;;;;;5.25;2.50;;;19.30;71.20;;;;;;6136991;23;20351;-87
2023/08/04 08:01:28;;;;;;;6.03;2.20;;;19.30;71.50;;;;;;6136722;23;20043;-88
2023/08/04 08:03:55;;;;;;;5.13;2.17;;;19.30;71.50;;;;;;6136866;23;20021;-87
2023/08/04 08:06:23;;;;;;;5.90;1.80;;;19.30;71.40;;;;;;6137003;23;20013;-88
2023/08/04 08:08:50;;;;;;;5.25;2.13;;;19.50;72.10;;;;;;6136949;23;20021;-88
2023/08/04 08:11:17;;;;;;;6.00;2.30;;;19.60;71.30;;;;;;6136682;23;20021;-88
2023/08/04 08:13:44;;;;;;;7.13;2.10;;;19.60;70.90;;;;;;6136704;23;20103;-87
2023/08/04 08:16:14;;;;;;;5.85;1.60;;;19.60;70.80;;;;;;6136505;23;20021;-86
2023/08/04 08:18:45;;;;;;;4.88;1.95;;;19.70;70.80;;;;;;6137948;23;20021;-87
2023/08/04 08:21:14;;;;;;;6.85;2.35;;;19.60;70.50;;;;;;6137356;23;20021;-87
2023/08/04 08:23:41;;;;;;;8.20;2.13;;;19.70;70.70;;;;;;6136467;23;20351;-87
2023/08/04 08:26:08;;;;;;;5.87;2.27;;;19.60;70.90;;;;;;6136723;23;20111;-87
2023/08/04 08:28:35;;;;;;;9.63;2.25;;;19.60;70.80;;;;;;6136335;23;20095;-87
2023/08/04 08:31:03;;;;;;;7.05;2.20;;;19.60;70.90;;;;;;6136546;23;20017;-88
2023/08/04 08:33:30;;;;;;;7.55;2.50;;;19.70;71.30;;;;;;6136749;23;20051;-87
2023/08/04 08:35:57;;;;;;;6.72;2.75;;;19.80;71.00;;;;;;6136494;23;20021;-87
2023/08/04 08:38:24;;;;;;;6.93;2.80;;;19.90;70.80;;;;;;6136684;23;20047;-87
2023/08/04 08:40:51;;;;;;;6.05;2.78;;;20.00;70.90;;;;;;6136534;23;20027;-87
2023/08/04 08:43:18;;;;;;;6.18;3.00;;;20.00;70.20;;;;;;6136399;23;20021;-87
2023/08/04 08:45:46;;;;;;;7.40;2.20;;;20.20;70.10;;;;;;6136548;23;20108;-87
2023/08/04 08:48:13;;;;;;;6.60;2.20;;;20.40;69.70;;;;;;6136252;23;20017;-87
2023/08/04 08:50:43;;;;;;;6.27;2.43;;;20.50;69.50;;;;;;6135844;23;20075;-87
2023/08/04 08:53:16;;;;;;;6.38;2.20;;;20.60;69.20;;;;;;6136385;23;20021;-90
2023/08/04 08:55:44;;;;;;;5.07;2.05;;;20.80;69.20;;;;;;6136550;23;20075;-90
2023/08/04 08:58:12;;;;;;;6.97;2.50;;;21.10;69.90;;;;;;6136325;23;20020;-92
2023/08/04 09:00:40;;;;;;;6.05;2.10;;;21.10;68.60;;;;;;6160575;23;20053;-89
2023/08/04 09:03:07;;;;;;;6.80;2.37;;;21.30;68.70;;;;;;6136456;23;20511;-90
2023/08/04 09:05:37;;;;;;;6.45;2.40;;;21.50;68.40;;;;;;6136268;23;20016;-90
2023/08/04 09:08:06;;;;;;;6.15;2.10;;;21.60;68.30;;;;;;6136735;23;20501;-90
2023/08/04 09:10:37;;;;;;;6.85;2.30;;;21.60;66.80;;;;;;6160878;23;20017;-90
2023/08/04 09:13:09;;;;;;;6.07;2.53;;;21.70;67.60;;;;;;6136356;23;20025;-90
2023/08/04 09:15:46;;;;;;;4.93;2.00;;;21.80;67.00;;;;;;6135954;23;20044;-90
2023/08/04 09:18:25;;;;;;;5.90;2.33;;;21.80;66.00;;;;;;6136337;23;20025;-90
2023/08/04 09:20:59;;;;;;;7.25;2.50;;;21.80;65.30;;;;;;6136392;23;20380;-90
2023/08/04 09:23:30;;;;;;;5.43;2.20;;;21.70;65.00;;;;;;6135842;23;20044;-90
2023/08/04 09:25:57;;;;;;;6.70;2.05;;;21.70;65.10;;;;;;6136453;23;20013;-90
2023/08/04 09:28:26;;;;;;;7.60;2.50;;;21.90;64.90;;;;;;6135852;23;20021;-90
2023/08/04 09:31:00;;;;;;;7.80;2.40;;;22.00;65.20;;;;;;6136165;23;20023;-90
2023/08/04 09:33:27;;;;;;;4.63;2.13;;;22.30;65.60;;;;;;6136723;23;20028;-90
2023/08/04 09:36:05;;;;;;;5.85;2.45;;;22.60;64.90;;;;;;6136738;23;20025;-91
2023/08/04 09:38:33;;;;;;;6.80;2.65;;;22.90;64.20;;;;;;6136514;23;20021;-90
2023/08/04 09:41:11;;;;;;;6.17;2.00;;;22.90;64.20;;;;;;6136615;23;20021;-90
2023/08/04 09:43:49;;;;;;;5.63;2.38;;;22.80;62.90;;;;;;6136682;23;20462;-90
2023/08/04 09:46:17;;;;;;;8.90;2.47;;;22.70;63.30;;;;;;6136689;23;20021;-90
2023/08/04 09:48:45;;;;;;;7.72;2.55;;;22.60;64.90;;;;;;6136897;23;20328;-90
2023/08/04 09:51:20;;;;;;;7.25;2.40;;;22.60;65.10;;;;;;6160973;23;20084;-90
2023/08/04 09:53:54;;;;;;;6.53;2.23;;;22.70;64.60;;;;;;6136677;23;20363;-90
2023/08/04 09:56:28;;;;;;;7.25;2.35;;;22.80;63.90;;;;;;6136550;23;20297;-90
2023/08/04 09:58:57;;;;;;;7.88;2.35;;;22.80;62.60;;;;;;6136996;23;20013;-90
2023/08/04 10:01:25;;;;;;;5.55;2.50;;;22.80;62.50;;;;;;6137051;23;20041;-90
2023/08/04 10:03:55;;;;;;;8.88;2.60;;;22.80;62.40;;;;;;6162933;23;20384;-90
2023/08/04 10:06:24;;;;;;;7.53;2.20;;;22.90;63.60;;;;;;6138988;23;20462;-90
2023/08/04 10:08:55;;;;;;;7.20;2.50;;;23.00;63.10;;;;;;6138529;23;20021;-90
2023/08/04 10:11:23;;;;;;;9.00;2.67;;;23.10;63.80;;;;;;6162891;23;20071;-90
2023/08/04 10:13:52;;;;;;;8.88;2.13;;;23.10;62.90;;;;;;6138192;23;20017;-90
2023/08/04 10:16:31;;;;;;;7.38;2.65;;;23.20;61.60;;;;;;6138560;23;20071;-90
2023/08/04 10:19:05;;;;;;;7.67;2.37;;;23.30;61.80;;;;;;6138531;23;20017;-90
2023/08/04 10:21:39;;;;;;;6.35;2.40;;;23.50;63.20;;;;;;6138415;23;20055;-90
2023/08/04 10:24:11;;;;;;;6.40;2.42;;;23.50;62.70;;;;;;6138546;23;20020;-90
2023/08/04 10:26:52;;;;;;;10.60;2.17;;;23.50;61.40;;;;;;6138382;23;20091;-90
2023/08/04 10:29:29;;;;;;;6.18;2.20;;;23.50;62.10;;;;;;6138336;23;20447;-90
2023/08/04 10:31:58;;;;;;;9.77;2.37;;;23.50;62.10;;;;;;6138583;23;20021;-90
2023/08/04 10:34:37;;;;;;;6.97;2.47;;;23.60;62.00;;;;;;6138759;23;20017;-89
2023/08/04 10:37:18;;;;;;;11.20;3.33;;;23.60;61.10;;;;;;6162959;23;20021;-89
2023/08/04 10:39:55;;;;;;;8.70;2.80;;;23.60;62.20;;;;;;6137857;23;20084;-90
2023/08/04 10:42:27;;;;;;;6.97;2.50;;;23.60;61.90;;;;;;6138460;23;20502;-90
2023/08/04 10:45:05;;;;;;;6.63;2.27;;;23.70;61.80;;;;;;6137793;23;20013;-90
2023/08/04 10:47:44;;;;;;;10.20;2.58;;;23.80;61.90;;;;;;6138252;23;20068;-90
2023/08/04 10:50:18;;;;;;;8.55;3.30;;;23.80;62.40;;;;;;6162894;23;20104;-90
2023/08/04 10:52:45;;;;;;;9.23;2.75;;;23.70;61.70;;;;;;6138474;23;20507;-90
2023/08/04 10:55:14;;;;;;;7.40;2.92;;;23.70;61.20;;;;;;6138480;23;20087;-90
2023/08/04 10:57:42;;;;;;;7.67;2.60;;;23.60;60.80;;;;;;6138651;23;20084;-90
2023/08/04 11:00:11;;;;;;;7.18;2.72;;;23.70;60.50;;;;;;6138242;23;20020;-90
2023/08/04 11:02:38;;;;;;;6.80;2.50;;;23.80;60.80;;;;;;6138117;23;20080;-90
2023/08/04 11:05:11;;;;;;;9.15;2.53;;;23.90;61.70;;;;;;6138737;23;20344;-90
2023/08/04 11:07:45;;;;;;;6.57;2.50;;;23.90;62.30;;;;;;6138242;23;20019;-90
2023/08/04 11:10:13;;;;;;;5.97;2.23;;;23.90;61.30;;;;;;6138683;23;20051;-90
2023/08/04 11:12:40;;;;;;;6.75;2.58;;;23.90;61.00;;;;;;6137787;23;20144;-90
2023/08/04 11:15:11;;;;;;;6.10;2.70;;;23.90;62.80;;;;;;6138139;23;20384;-90
2023/08/04 11:17:39;;;;;;;6.97;2.40;;;23.80;61.50;;;;;;6138274;23;20103;-90
2023/08/04 11:20:15;;;;;;;9.18;4.50;;;23.80;60.50;;;;;;6138368;23;20027;-90
2023/08/04 11:22:48;;;;;;;9.27;4.30;;;24.00;60.80;;;;;;6138523;23;20348;-90
2023/08/04 11:25:16;;;;;;;10.30;3.63;;;24.10;59.60;;;;;;6138042;23;20388;-90
2023/08/04 11:27:45;;;;;;;7.53;2.90;;;24.20;58.00;;;;;;6163079;23;20013;-90
2023/08/04 11:30:19;;;;;;;9.68;4.68;;;24.30;58.90;;;;;;6139293;23;20013;-90
2023/08/04 11:32:50;;;;;;;5.55;2.10;;;24.40;57.40;;;;;;6137791;23;20040;-90
2023/08/04 11:35:17;;;;;;;4.90;2.30;;;24.50;57.40;;;;;;6138146;23;20030;-89
2023/08/04 11:37:44;;;;;;;8.57;3.80;;;24.40;58.10;;;;;;6138021;23;20403;-90
2023/08/04 11:40:23;;;;;;;9.93;5.13;;;24.50;57.10;;;;;;6137926;23;20447;-90
2023/08/04 11:42:51;;;;;;;8.88;5.20;;;24.50;56.40;;;;;;6138771;23;20021;-90
2023/08/04 11:45:19;;;;;;;6.95;3.60;;;24.60;56.90;;;;;;6137619;23;20100;-89
2023/08/04 11:47:46;;;;;;;9.73;5.17;;;24.60;58.10;;;;;;6137373;23;20044;-89
2023/08/04 11:50:16;;;;;;;6.85;2.80;;;24.60;56.60;;;;;;6138069;23;20021;-89
2023/08/04 11:52:46;;;;;;;7.38;2.33;;;24.50;55.60;;;;;;6137557;23;20028;-90
2023/08/04 11:55:13;;;;;;;5.55;2.00;;;24.30;56.30;;;;;;6138106;23;20028;-90
2023/08/04 11:57:51;;;;;;;6.10;2.03;;;24.40;57.40;;;;;;6137771;23;20360;-90
2023/08/04 12:00:35;;;;;;;9.33;3.73;;;24.50;56.40;;;;;;6137796;23;20024;-90
2023/08/04 12:03:04;;;;;;;5.70;2.35;;;24.50;57.70;;;;;;6137514;23;20017;-89
2023/08/04 12:05:36;;;;;;;8.43;2.33;;;24.60;56.90;;;;;;6137626;23;20021;-90
2023/08/04 12:08:13;;;;;;;5.40;1.77;;;24.60;57.80;;;;;;6137640;23;20041;-89
2023/08/04 12:10:41;;;;;;;5.47;1.90;;;24.60;53.60;;;;;;6137675;23;20013;-90
2023/08/04 12:13:08;;;;;;;6.10;1.80;;;24.60;54.20;;;;;;6137558;23;20031;-90
2023/08/04 12:15:54;;;;;;;5.28;2.08;;;24.50;56.00;;;;;;6137695;23;20505;-89
2023/08/04 12:18:26;;;;;;;9.68;4.90;;;24.50;56.60;;;;;;6137811;23;20455;-90
2023/08/04 12:20:53;;;;;;;7.07;3.35;;;24.50;55.20;;;;;;6161971;23;20044;-90
2023/08/04 12:23:20;;;;;;;6.97;2.28;;;24.50;54.90;;;;;;6137320;23;20017;-90
2023/08/04 12:25:47;;;;;;;6.33;2.60;;;24.40;54.60;;;;;;6161829;23;20037;-90
2023/08/04 12:28:15;;;;;;;11.25;7.07;;;24.50;54.80;;;;;;6137141;23;20024;-90
2023/08/04 12:30:43;;;;;;;8.63;5.00;;;24.60;55.40;;;;;;6161907;23;20025;-90
2023/08/04 12:33:11;;;;;;;9.45;5.22;;;24.60;55.30;;;;;;6137458;23;20024;-90
2023/08/04 12:35:38;;;;;;;9.77;5.60;;;24.60;55.60;;;;;;6137992;23;20017;-90
2023/08/04 12:38:05;;;;;;;7.07;3.73;;;24.60;56.80;;;;;;6137479;23;20028;-90
2023/08/04 12:40:35;;;;;;;5.00;2.28;;;24.70;54.60;;;;;;6137599;23;20051;-89
2023/08/04 12:43:05;;;;;;;7.43;2.20;;;24.70;54.90;;;;;;6137315;23;20013;-89
2023/08/04 12:45:32;;;;;;;4.78;1.98;;;24.70;54.60;;;;;;6137302;23;20021;-90
2023/08/04 12:47:59;;;;;;;5.88;2.28;;;24.80;54.90;;;;;;6161765;23;20444;-89
2023/08/04 12:50:26;;;;;;;8.60;3.40;;;25.00;55.60;;;;;;6137757;23;20115;-89
2023/08/04 12:56:23;;;;;;;6.95;3.67;;;25.20;52.90;;;;;;6185024;23;20477;-89
2023/08/04 12:58:50;;;;;;;6.65;3.53;;;25.30;53.10;;;;;;6136645;23;20021;-89
2023/08/04 13:01:21;;;;;;;6.30;3.00;;;25.60;53.40;;;;;;6137858;23;20439;-89
2023/08/04 13:03:49;;;;;;;6.87;3.50;;;25.80;53.60;;;;;;6136929;23;20013;-88
2023/08/04 13:06:19;;;;;;;8.68;2.80;;;25.80;54.10;;;;;;6161001;23;20043;-89
2023/08/04 13:08:46;;;;;;;6.45;2.92;;;25.90;53.70;;;;;;6137137;23;20025;-89
2023/08/04 13:11:13;;;;;;;5.28;2.10;;;26.00;54.80;;;;;;6137215;23;20104;-89
2023/08/04 13:13:41;;;;;;;5.18;2.20;;;26.00;52.90;;;;;;6137126;23;20024;-89